Ana Sayfa
METAR-TAF:

METAR-TAF

Havaalanları :

Xi'an Xianyang Uluslararası Havalimanı

Xi'an, Çin

Enlem: 34-26N, Boylam: 108-45E, yükseklik: 479 m

Güncel hava durumu gözlemi

Rapor saat 22:00 UTC de 39 dakika önce yapıldı.
Rüzgar batı/güneybatıdan 6 kt
Sıcaklık 13°C
Nem 77%
Basınç 1026 hPa
Görüş mesafesi: 6000 m
6000 ft yükseklikte az bulutlu

METAR: ZLXY 212200Z 24003MPS 6000 FEW060 13/09 Q1026 NOSIG

Saat: 06:39 (22:39 UTC)

Tahmin

Rapor saat 15:05 UTC de 7 saat ve 34 dakika önce yapıldı.
Ayın 21'si saat 18 UTC'den ayın 22'si saat 18 UTC'ye kadar geçerli Tahmin
Rüzgar batıdan 8 kt ve 19 kt'a kadar ani rüzgarlar
Görüş mesafesi: 3000 m
5000 ft yükseklikte çok bulutlu
Pus

TAF: ZLXY 211505Z 2118/2218 26004G10MPS 3000 BR OVC050 TX26/2208Z TN11/2122Z

4.000'den fazla havaalanı için hava durumu gözlemleri ve tahminleri (METAR ve TAF raporları).

Kullanılabilir istasyonlar harita üzerinde sarı ve kırmızı noktalarla gösterilir.

İstasyonun adını görmek için fareyi noktanın üzerinde gezdirin.

Sonrasında hava gözlem ve tahminlerini görmek için tıklayın.

Haritayı değiştirmek için: yaklaştırmak için siyah artı işaretli yeşil düğmeye ve uzaklaştırmak için de eksi işaretli düğmeye hızla tıklayın; bitişik haritalar için yeşil okları kullanın.


METAR-TAF: